Time;durP1;ratioP1;P1;durP2;ratioP2;P2;SDS_P1;SDS_P2;PMS_P1;PMS_P2;Temp;Humidity;BMP_temperature;BMP_pressure;BME280_temperature;BME280_humidity;BME280_pressure;Samples;Min_cycle;Max_cycle;Signal;HPM_P1;HPM_P2
2021/04/27 00:00:11;;;;;;;4.75;2.25;;;;;;;;;;4914875;29;20056;-72
2021/04/27 00:02:37;;;;;;;3.90;2.00;;;;;;;;;;4916131;29;20499;-72
2021/04/27 00:05:05;;;;;;;3.17;1.77;;;;;;;;;;4914809;29;20060;-72
2021/04/27 00:07:31;;;;;;;2.20;2.00;;;;;;;;;;4914283;29;20495;-73
2021/04/27 00:09:57;;;;;;;5.18;1.95;;;;;;;;;;4915059;29;20119;-72
2021/04/27 00:12:23;;;;;;;2.28;1.83;;;;;;;;;;4914600;29;20571;-72
2021/04/27 00:14:49;;;;;;;3.45;2.00;;;;;;;;;;4930425;29;20584;-72
2021/04/27 00:17:16;;;;;;;3.92;2.00;;;;;;;;;;4913885;29;20052;-72
2021/04/27 00:19:42;;;;;;;2.20;1.73;;;;;;;;;;4915728;29;20056;-72
2021/04/27 00:22:08;;;;;;;2.83;1.90;;;;;;;;;;4914469;29;20059;-72
2021/04/27 00:24:34;;;;;;;3.10;2.42;;;;;;;;;;4915830;29;20131;-72
2021/04/27 00:27:01;;;;;;;5.65;1.90;;;;;;;;;;4913909;29;20048;-72
2021/04/27 00:29:28;;;;;;;4.75;2.20;;;;;;;;;;4914480;29;20052;-72
2021/04/27 00:31:54;;;;;;;2.85;1.83;;;;;;;;;;4911174;29;20075;-72
2021/04/27 00:34:21;;;;;;;2.50;1.50;;;;;;;;;;4895639;29;20052;-72
2021/04/27 00:36:47;;;;;;;3.95;1.83;;;;;;;;;;4910367;29;20132;-72
2021/04/27 00:39:13;;;;;;;3.80;1.80;;;;;;;;;;4896505;29;20131;-72
2021/04/27 00:41:39;;;;;;;3.65;2.15;;;;;;;;;;4896822;29;20048;-72
2021/04/27 00:44:05;;;;;;;8.38;2.13;;;;;;;;;;4914080;29;20056;-72
2021/04/27 00:46:32;;;;;;;3.47;2.20;;;;;;;;;;4897923;29;20083;-72
2021/04/27 00:48:58;;;;;;;2.67;1.70;;;;;;;;;;4914396;29;20059;-72
2021/04/27 00:51:25;;;;;;;5.30;1.75;;;;;;;;;;4929862;29;20064;-72
2021/04/27 00:53:52;;;;;;;3.10;1.88;;;;;;;;;;4930091;29;20056;-72
2021/04/27 00:56:19;;;;;;;4.25;1.98;;;;;;;;;;4913548;29;20380;-72
2021/04/27 00:58:45;;;;;;;2.42;1.83;;;;;;;;;;4914368;29;20048;-72
2021/04/27 01:01:12;;;;;;;6.28;2.00;;;;;;;;;;4914116;29;20113;-72
2021/04/27 01:03:40;;;;;;;2.90;1.85;;;;;;;;;;4914131;29;20138;-72
2021/04/27 01:06:07;;;;;;;3.47;2.15;;;;;;;;;;4913196;29;20091;-72
2021/04/27 01:08:56;;;;;;;5.60;1.90;;;;;;;;;;4929818;29;20060;-72
2021/04/27 01:11:23;;;;;;;3.08;1.60;;;;;;;;;;4910323;29;20495;-72
2021/04/27 01:14:01;;;;;;;4.82;2.10;;;;;;;;;;4915211;29;20055;-72
2021/04/27 01:16:28;;;;;;;4.75;1.85;;;;;;;;;;4929068;29;20052;-72
2021/04/27 01:18:54;;;;;;;3.92;2.22;;;;;;;;;;4914045;29;20075;-72
2021/04/27 01:21:22;;;;;;;3.53;1.80;;;;;;;;;;4913931;29;20489;-72
2021/04/27 01:24:13;;;;;;;3.70;1.90;;;;;;;;;;4929482;29;20088;-72
2021/04/27 01:26:46;;;;;;;3.30;2.33;;;;;;;;;;4928009;29;20060;-72
2021/04/27 01:29:15;;;;;;;4.33;1.60;;;;;;;;;;4913948;29;20086;-72
2021/04/27 01:31:41;;;;;;;3.20;2.30;;;;;;;;;;4913947;29;20056;-72
2021/04/27 01:34:07;;;;;;;2.75;1.55;;;;;;;;;;4913893;29;20056;-72
2021/04/27 01:36:34;;;;;;;3.53;1.77;;;;;;;;;;4913085;29;20044;-72
2021/04/27 01:39:00;;;;;;;3.45;2.05;;;;;;;;;;4913790;29;20048;-72
2021/04/27 01:41:27;;;;;;;6.75;2.28;;;;;;;;;;4929930;29;20051;-72
2021/04/27 01:43:53;;;;;;;5.97;2.42;;;;;;;;;;4913779;29;20056;-72
2021/04/27 01:46:19;;;;;;;3.45;2.28;;;;;;;;;;4928704;29;20507;-72
2021/04/27 01:48:45;;;;;;;4.68;2.25;;;;;;;;;;4929439;29;20056;-72
2021/04/27 01:51:12;;;;;;;5.07;2.00;;;;;;;;;;4913681;29;20080;-72
2021/04/27 01:53:39;;;;;;;3.75;2.05;;;;;;;;;;4917327;29;20103;-72
2021/04/27 01:56:06;;;;;;;2.10;1.88;;;;;;;;;;4932094;29;20056;-72
2021/04/27 01:58:32;;;;;;;3.85;2.17;;;;;;;;;;4917135;29;20396;-72
2021/04/27 02:00:59;;;;;;;2.63;1.70;;;;;;;;;;4932623;29;20111;-72
2021/04/27 02:03:26;;;;;;;3.05;2.40;;;;;;;;;;4917042;29;20051;-72
2021/04/27 02:05:52;;;;;;;2.97;1.98;;;;;;;;;;4916442;29;20089;-72
2021/04/27 02:08:18;;;;;;;3.53;1.77;;;;;;;;;;4918151;29;20048;-72
2021/04/27 02:10:44;;;;;;;2.22;1.90;;;;;;;;;;4932739;29;20499;-72
2021/04/27 02:13:16;;;;;;;3.85;2.33;;;;;;;;;;4932979;29;20467;-72
2021/04/27 02:15:43;;;;;;;3.25;1.92;;;;;;;;;;4916412;29;20079;-72
2021/04/27 02:18:09;;;;;;;4.43;1.85;;;;;;;;;;4916744;29;20048;-72
2021/04/27 02:20:35;;;;;;;2.47;1.90;;;;;;;;;;4918280;29;20059;-72
2021/04/27 02:23:02;;;;;;;3.08;2.08;;;;;;;;;;4932353;29;20152;-72
2021/04/27 02:25:28;;;;;;;3.58;2.33;;;;;;;;;;4931497;29;20570;-72
2021/04/27 02:27:55;;;;;;;5.13;2.22;;;;;;;;;;4912433;29;20092;-72
2021/04/27 02:30:23;;;;;;;5.15;2.13;;;;;;;;;;4897703;29;20108;-72
2021/04/27 02:32:49;;;;;;;2.83;1.90;;;;;;;;;;4898060;29;20112;-72
2021/04/27 02:35:17;;;;;;;3.38;2.20;;;;;;;;;;4897257;29;20520;-72
2021/04/27 02:37:45;;;;;;;5.55;2.20;;;;;;;;;;4912903;29;20053;-72
2021/04/27 02:40:13;;;;;;;3.60;2.38;;;;;;;;;;4913078;29;20052;-73
2021/04/27 02:42:39;;;;;;;5.82;2.25;;;;;;;;;;4897551;29;20464;-72
2021/04/27 02:45:07;;;;;;;3.28;2.47;;;;;;;;;;4913069;29;20088;-72
2021/04/27 02:47:33;;;;;;;4.65;2.17;;;;;;;;;;4913084;29;20107;-72
2021/04/27 02:50:00;;;;;;;3.20;2.55;;;;;;;;;;4916069;29;20056;-72
2021/04/27 02:52:26;;;;;;;5.68;3.40;;;;;;;;;;4916099;29;20060;-72
2021/04/27 02:54:52;;;;;;;3.83;2.60;;;;;;;;;;4916137;29;20052;-72
2021/04/27 02:57:19;;;;;;;5.20;2.75;;;;;;;;;;4915395;29;20056;-72
2021/04/27 02:59:45;;;;;;;3.95;2.22;;;;;;;;;;4931906;29;20048;-73
2021/04/27 03:02:11;;;;;;;5.95;2.50;;;;;;;;;;4931764;29;20052;-72
2021/04/27 03:04:37;;;;;;;4.88;2.63;;;;;;;;;;4916083;29;20052;-72
2021/04/27 03:07:03;;;;;;;4.15;2.83;;;;;;;;;;4916088;29;20503;-72
2021/04/27 03:09:29;;;;;;;4.03;2.63;;;;;;;;;;4915957;29;20051;-72
2021/04/27 03:11:55;;;;;;;2.70;2.03;;;;;;;;;;4931554;29;20048;-72
2021/04/27 03:14:21;;;;;;;6.05;2.55;;;;;;;;;;4931515;29;20051;-72
2021/04/27 03:16:47;;;;;;;5.57;2.53;;;;;;;;;;4914968;29;20044;-72
2021/04/27 03:19:14;;;;;;;3.38;2.28;;;;;;;;;;4916744;29;20496;-72
2021/04/27 03:21:40;;;;;;;4.00;2.42;;;;;;;;;;4915750;29;20048;-72
2021/04/27 03:24:07;;;;;;;3.35;2.33;;;;;;;;;;4899939;29;20060;-72
2021/04/27 03:26:33;;;;;;;4.95;2.80;;;;;;;;;;4930575;29;20459;-72
2021/04/27 03:28:59;;;;;;;2.50;2.00;;;;;;;;;;4931294;29;20084;-72
2021/04/27 03:31:25;;;;;;;5.35;2.47;;;;;;;;;;4931378;29;20056;-72
2021/04/27 03:33:51;;;;;;;2.80;1.95;;;;;;;;;;4915470;29;20056;-72
2021/04/27 03:36:18;;;;;;;4.60;2.47;;;;;;;;;;4942947;23;20386;-72
2021/04/27 03:38:44;;;;;;;4.07;2.15;;;;;;;;;;4954858;29;20454;-71
2021/04/27 03:41:10;;;;;;;3.97;2.10;;;;;;;;;;4953491;29;20473;-71
2021/04/27 03:43:36;;;;;;;4.70;2.70;;;;;;;;;;4954801;29;20078;-71
2021/04/27 03:46:02;;;;;;;3.58;2.25;;;;;;;;;;4953715;29;20090;-71
2021/04/27 03:48:28;;;;;;;3.03;2.60;;;;;;;;;;4935793;29;20131;-72
2021/04/27 03:50:55;;;;;;;5.95;2.95;;;;;;;;;;4936543;29;20061;-72
2021/04/27 03:53:21;;;;;;;4.40;2.50;;;;;;;;;;4934675;29;20059;-72
2021/04/27 03:55:47;;;;;;;6.00;2.97;;;;;;;;;;4933624;29;20058;-72
2021/04/27 03:58:13;;;;;;;3.67;2.47;;;;;;;;;;4934371;29;20047;-72
2021/04/27 04:00:39;;;;;;;5.03;2.65;;;;;;;;;;4935528;29;20103;-72
2021/04/27 04:03:05;;;;;;;10.05;2.78;;;;;;;;;;4935253;29;20499;-72
2021/04/27 04:05:32;;;;;;;4.07;2.33;;;;;;;;;;4934647;29;20067;-72
2021/04/27 04:07:58;;;;;;;3.28;2.50;;;;;;;;;;4934905;29;20360;-72
2021/04/27 04:10:24;;;;;;;6.85;3.28;;;;;;;;;;4935302;29;20529;-72
2021/04/27 04:12:51;;;;;;;7.22;2.30;;;;;;;;;;4935305;29;20093;-72
2021/04/27 04:15:18;;;;;;;5.40;2.72;;;;;;;;;;4934436;29;20048;-73
2021/04/27 04:17:44;;;;;;;3.92;2.40;;;;;;;;;;4917987;29;20067;-72
2021/04/27 04:20:22;;;;;;;4.45;2.72;;;;;;;;;;4918025;29;20056;-72
2021/04/27 04:22:48;;;;;;;4.13;2.28;;;;;;;;;;4936895;29;20052;-72
2021/04/27 04:25:16;;;;;;;3.58;2.67;;;;;;;;;;4936544;29;20059;-71
2021/04/27 04:27:42;;;;;;;5.53;2.55;;;;;;;;;;4917375;29;20082;-74
2021/04/27 04:30:20;;;;;;;8.00;2.60;;;;;;;;;;4935046;29;20056;-72
2021/04/27 04:32:47;;;;;;;3.55;2.70;;;;;;;;;;4918595;29;20059;-72
2021/04/27 04:35:15;;;;;;;2.58;2.38;;;;;;;;;;4917638;29;20093;-72
2021/04/27 04:37:41;;;;;;;3.33;2.63;;;;;;;;;;4934482;29;20051;-72
2021/04/27 04:40:09;;;;;;;5.15;2.60;;;;;;;;;;4935235;29;20055;-72
2021/04/27 04:42:35;;;;;;;3.45;2.60;;;;;;;;;;4934231;29;20482;-72
2021/04/27 04:45:03;;;;;;;4.68;2.65;;;;;;;;;;4933294;29;20055;-71
2021/04/27 04:47:30;;;;;;;2.75;2.20;;;;;;;;;;4934433;29;20414;-72
2021/04/27 04:49:56;;;;;;;8.23;2.83;;;;;;;;;;4934786;29;20079;-72
2021/04/27 04:52:22;;;;;;;3.42;2.47;;;;;;;;;;4934790;29;20086;-72
2021/04/27 04:54:48;;;;;;;3.00;2.65;;;;;;;;;;4934577;29;20498;-72
2021/04/27 04:57:15;;;;;;;3.67;2.53;;;;;;;;;;4948413;29;20487;-72
2021/04/27 04:59:41;;;;;;;3.05;2.50;;;;;;;;;;4934372;29;20057;-72
2021/04/27 05:02:08;;;;;;;3.97;2.63;;;;;;;;;;4917598;29;20058;-73
2021/04/27 05:04:34;;;;;;;6.68;2.50;;;;;;;;;;4934974;29;20466;-72
2021/04/27 05:07:06;;;;;;;4.25;2.45;;;;;;;;;;4917474;29;20044;-71
2021/04/27 05:09:32;;;;;;;5.75;2.90;;;;;;;;;;4935343;29;20056;-72
2021/04/27 05:12:00;;;;;;;5.30;2.63;;;;;;;;;;4934639;29;20047;-71
2021/04/27 05:14:26;;;;;;;5.22;2.72;;;;;;;;;;4917752;29;20087;-72
2021/04/27 05:16:53;;;;;;;4.40;3.15;;;;;;;;;;4933810;29;20048;-71
2021/04/27 05:19:19;;;;;;;4.35;3.45;;;;;;;;;;4935929;29;20044;-72
2021/04/27 05:21:45;;;;;;;6.00;3.10;;;;;;;;;;4934016;29;20052;-72
2021/04/27 05:24:11;;;;;;;8.98;3.17;;;;;;;;;;4933732;29;20091;-72
2021/04/27 05:26:37;;;;;;;3.58;2.65;;;;;;;;;;4917543;29;20080;-72
2021/04/27 05:29:03;;;;;;;7.10;2.85;;;;;;;;;;4936913;29;20498;-71
2021/04/27 05:31:30;;;;;;;7.55;3.15;;;;;;;;;;4937029;29;20494;-72
2021/04/27 05:33:56;;;;;;;3.72;2.40;;;;;;;;;;4921673;29;20103;-72
2021/04/27 05:36:22;;;;;;;5.05;2.70;;;;;;;;;;4937507;29;20060;-71
2021/04/27 05:38:48;;;;;;;4.07;2.70;;;;;;;;;;4938359;29;20114;-72
2021/04/27 05:41:14;;;;;;;8.77;3.22;;;;;;;;;;4939427;29;20052;-73
2021/04/27 05:43:40;;;;;;;3.88;2.80;;;;;;;;;;4921736;29;20048;-70
2021/04/27 05:46:07;;;;;;;7.72;3.00;;;;;;;;;;4927197;29;20088;-72
2021/04/27 05:48:33;;;;;;;4.15;3.20;;;;;;;;;;4924336;29;20056;-71
2021/04/27 05:50:59;;;;;;;4.53;3.13;;;;;;;;;;4931121;29;20047;-72
2021/04/27 05:53:26;;;;;;;5.25;2.50;;;;;;;;;;4910287;29;20060;-72
2021/04/27 05:55:52;;;;;;;4.97;2.97;;;;;;;;;;4923135;29;20075;-72
2021/04/27 05:58:18;;;;;;;3.42;2.55;;;;;;;;;;4925198;29;20099;-73
2021/04/27 06:00:44;;;;;;;5.28;2.58;;;;;;;;;;4925344;29;20051;-72
2021/04/27 06:03:30;;;;;;;6.43;2.80;;;;;;;;;;4926174;29;20427;-72
2021/04/27 06:05:56;;;;;;;2.65;2.40;;;;;;;;;;4920983;29;20119;-73
2021/04/27 06:08:22;;;;;;;6.53;2.70;;;;;;;;;;4921786;29;20107;-72
2021/04/27 06:10:48;;;;;;;6.40;3.10;;;;;;;;;;4921651;29;20060;-73
2021/04/27 06:13:15;;;;;;;9.77;2.97;;;;;;;;;;4921737;29;20047;-73
2021/04/27 06:15:41;;;;;;;7.50;3.40;;;;;;;;;;4904218;29;20052;-72
2021/04/27 06:18:07;;;;;;;5.28;3.25;;;;;;;;;;4919514;29;20111;-72
2021/04/27 06:20:33;;;;;;;3.50;2.92;;;;;;;;;;4918825;29;20080;-72
2021/04/27 06:23:00;;;;;;;8.90;3.60;;;;;;;;;;4924112;29;20048;-72
2021/04/27 06:25:26;;;;;;;4.57;2.85;;;;;;;;;;4912686;29;20107;-71
2021/04/27 06:27:52;;;;;;;4.00;3.25;;;;;;;;;;4925188;29;20053;-72
2021/04/27 06:30:19;;;;;;;4.53;2.80;;;;;;;;;;4920558;29;20052;-72
2021/04/27 06:32:47;;;;;;;5.22;2.95;;;;;;;;;;4922282;29;20048;-72
2021/04/27 06:35:14;;;;;;;5.22;2.90;;;;;;;;;;4906996;29;20060;-72
2021/04/27 06:37:41;;;;;;;7.18;3.95;;;;;;;;;;4915041;29;20410;-73
2021/04/27 06:40:08;;;;;;;11.10;3.00;;;;;;;;;;4920659;29;20430;-74
2021/04/27 06:42:34;;;;;;;5.35;3.00;;;;;;;;;;4922456;29;20116;-73
2021/04/27 06:45:00;;;;;;;4.55;2.50;;;;;;;;;;4921278;29;20052;-74
2021/04/27 06:47:26;;;;;;;4.90;3.22;;;;;;;;;;4891687;29;20099;-73
2021/04/27 06:49:54;;;;;;;4.32;3.20;;;;;;;;;;4922952;29;20623;-74
2021/04/27 06:52:21;;;;;;;7.10;3.63;;;;;;;;;;4918285;29;20520;-73
2021/04/27 06:54:47;;;;;;;4.60;2.90;;;;;;;;;;4921764;29;20055;-70
2021/04/27 06:57:13;;;;;;;5.13;3.08;;;;;;;;;;4920357;29;20091;-72
2021/04/27 06:59:39;;;;;;;10.55;4.38;;;;;;;;;;4905067;29;20055;-72
2021/04/27 07:02:07;;;;;;;7.10;3.15;;;;;;;;;;4920843;29;20075;-72
2021/04/27 07:04:40;;;;;;;6.25;4.10;;;;;;;;;;4915800;29;20135;-72
2021/04/27 07:07:06;;;;;;;6.10;3.17;;;;;;;;;;4912223;29;20063;-72
2021/04/27 07:09:33;;;;;;;6.30;3.67;;;;;;;;;;4921570;29;20127;-70
2021/04/27 07:11:59;;;;;;;18.27;4.13;;;;;;;;;;4918600;29;20092;-69
2021/04/27 07:14:26;;;;;;;4.57;3.42;;;;;;;;;;4924766;29;20185;-71
2021/04/27 07:16:52;;;;;;;4.55;3.15;;;;;;;;;;4919208;29;20080;-72
2021/04/27 07:19:19;;;;;;;7.95;3.42;;;;;;;;;;4921395;29;20062;-71
2021/04/27 07:21:45;;;;;;;5.57;3.50;;;;;;;;;;4919257;29;20304;-69
2021/04/27 07:24:11;;;;;;;5.03;3.55;;;;;;;;;;4920996;29;20147;-70
2021/04/27 07:26:41;;;;;;;5.88;3.25;;;;;;;;;;4909807;29;20426;-69
2021/04/27 07:29:08;;;;;;;7.70;4.95;;;;;;;;;;4924687;29;20431;-70
2021/04/27 07:31:36;;;;;;;6.32;3.67;;;;;;;;;;4922024;29;20055;-69
2021/04/27 07:34:03;;;;;;;5.90;3.88;;;;;;;;;;4907709;29;20056;-69
2021/04/27 07:36:30;;;;;;;4.63;3.50;;;;;;;;;;4927162;29;20130;-69
2021/04/27 07:38:56;;;;;;;7.28;3.50;;;;;;;;;;4925986;29;20134;-70
2021/04/27 07:41:22;;;;;;;4.78;3.42;;;;;;;;;;4927835;29;20107;-73
2021/04/27 07:43:48;;;;;;;4.72;3.15;;;;;;;;;;4922269;29;20147;-75
2021/04/27 07:46:14;;;;;;;6.05;4.03;;;;;;;;;;4904985;29;20062;-74
2021/04/27 07:48:40;;;;;;;6.75;4.07;;;;;;;;;;4914338;29;20100;-74
2021/04/27 07:51:07;;;;;;;9.98;5.30;;;;;;;;;;4922169;29;20083;-74
2021/04/27 07:53:33;;;;;;;6.15;3.55;;;;;;;;;;4914195;29;20056;-72
2021/04/27 07:55:59;;;;;;;4.93;3.80;;;;;;;;;;4915279;29;20055;-74
2021/04/27 07:58:25;;;;;;;6.43;4.07;;;;;;;;;;4916140;29;20115;-74
2021/04/27 08:00:51;;;;;;;7.68;3.85;;;;;;;;;;4920952;29;20055;-74
2021/04/27 08:03:17;;;;;;;5.40;3.70;;;;;;;;;;4919886;29;20143;-74
2021/04/27 08:05:44;;;;;;;9.00;4.65;;;;;;;;;;4906743;29;20135;-74
2021/04/27 08:08:10;;;;;;;7.32;3.75;;;;;;;;;;4922818;29;20475;-73
2021/04/27 08:10:36;;;;;;;7.60;4.13;;;;;;;;;;4903372;29;20597;-71
2021/04/27 08:13:02;;;;;;;8.90;4.03;;;;;;;;;;4921465;29;20056;-71
2021/04/27 08:15:30;;;;;;;8.65;5.22;;;;;;;;;;4921586;29;20107;-71
2021/04/27 08:17:58;;;;;;;9.52;4.25;;;;;;;;;;4915042;29;20067;-71
2021/04/27 08:20:25;;;;;;;7.15;3.97;;;;;;;;;;4920981;29;20060;-71
2021/04/27 08:22:52;;;;;;;5.03;3.90;;;;;;;;;;4922439;29;20541;-70
2021/04/27 08:25:19;;;;;;;9.52;4.57;;;;;;;;;;4919713;29;20056;-71
2021/04/27 08:27:46;;;;;;;7.03;4.57;;;;;;;;;;4922754;29;20048;-70
2021/04/27 08:30:13;;;;;;;9.63;4.63;;;;;;;;;;4920075;29;20538;-71
2021/04/27 08:32:40;;;;;;;6.72;4.13;;;;;;;;;;4925873;29;20060;-71
2021/04/27 08:35:08;;;;;;;7.70;3.72;;;;;;;;;;4926268;29;20059;-70
2021/04/27 08:37:34;;;;;;;9.13;4.07;;;;;;;;;;4925020;29;20059;-70
2021/04/27 08:40:01;;;;;;;8.93;4.30;;;;;;;;;;4920703;29;20056;-70
2021/04/27 08:42:27;;;;;;;6.20;4.20;;;;;;;;;;4921981;29;20052;-70
2021/04/27 08:44:53;;;;;;;8.15;4.25;;;;;;;;;;4922890;29;20052;-71
2021/04/27 08:47:22;;;;;;;5.38;4.60;;;;;;;;;;4919252;29;20075;-71
2021/04/27 08:49:49;;;;;;;5.80;4.10;;;;;;;;;;4919681;29;20056;-70
2021/04/27 08:52:15;;;;;;;6.28;4.70;;;;;;;;;;4921060;29;20711;-71
2021/04/27 08:54:41;;;;;;;9.32;5.25;;;;;;;;;;4921538;29;20052;-70
2021/04/27 08:57:07;;;;;;;7.35;4.13;;;;;;;;;;4920311;29;20044;-70
2021/04/27 08:59:34;;;;;;;7.05;4.45;;;;;;;;;;4921609;29;20095;-70
2021/04/27 09:02:00;;;;;;;6.90;5.10;;;;;;;;;;4923966;29;20522;-68
2021/04/27 09:04:41;;;;;;;8.48;4.35;;;;;;;;;;4925977;29;20690;-71
2021/04/27 09:07:13;;;;;;;7.65;4.50;;;;;;;;;;4926713;29;20373;-70
2021/04/27 09:09:41;;;;;;;6.20;4.63;;;;;;;;;;4927128;29;20052;-70
2021/04/27 09:12:08;;;;;;;5.43;4.72;;;;;;;;;;4925236;29;20321;-67
2021/04/27 09:14:36;;;;;;;6.13;4.57;;;;;;;;;;4927885;29;20052;-70
2021/04/27 09:17:04;;;;;;;5.85;4.57;;;;;;;;;;4924907;29;20084;-67
2021/04/27 09:19:33;;;;;;;7.20;4.53;;;;;;;;;;4923345;29;20119;-71
2021/04/27 09:22:11;;;;;;;5.75;4.50;;;;;;;;;;4928609;29;20498;-72
2021/04/27 09:24:51;;;;;;;6.85;5.22;;;;;;;;;;4924519;29;20052;-71
2021/04/27 09:27:37;;;;;;;7.25;4.55;;;;;;;;;;4922606;29;20589;-70
2021/04/27 09:30:17;;;;;;;7.68;5.40;;;;;;;;;;4924240;29;20059;-69
2021/04/27 09:33:07;;;;;;;5.88;4.40;;;;;;;;;;4926514;29;20549;-68
2021/04/27 09:35:38;;;;;;;8.02;4.90;;;;;;;;;;4916454;29;20140;-70
2021/04/27 09:38:18;;;;;;;8.40;6.00;;;;;;;;;;4966026;23;20028;-79
2021/04/27 09:40:45;;;;;;;6.93;4.60;;;;;;;;;;4951920;29;20044;-73
2021/04/27 09:43:11;;;;;;;6.35;4.75;;;;;;;;;;4946929;29;20403;-74
2021/04/27 09:45:48;;;;;;;10.13;5.50;;;;;;;;;;4906869;29;20526;-76
2021/04/27 09:48:14;;;;;;;7.63;5.10;;;;;;;;;;4923748;29;20391;-74
2021/04/27 09:50:41;;;;;;;9.95;5.00;;;;;;;;;;4931646;29;20130;-74
2021/04/27 09:53:07;;;;;;;7.10;5.05;;;;;;;;;;4915493;29;20576;-74
2021/04/27 09:55:35;;;;;;;9.48;4.90;;;;;;;;;;4931608;29;20051;-74
2021/04/27 09:58:02;;;;;;;6.97;4.80;;;;;;;;;;4931448;29;20048;-73
2021/04/27 10:00:33;;;;;;;7.20;4.72;;;;;;;;;;4957581;28;20036;-72
2021/04/27 10:03:10;;;;;;;7.72;5.22;;;;;;;;;;4948000;28;20064;-74
2021/04/27 10:05:45;;;;;;;7.47;4.88;;;;;;;;;;4952930;28;20038;-73
2021/04/27 10:08:12;;;;;;;7.10;4.90;;;;;;;;;;4965266;28;20055;-75
2021/04/27 10:10:38;;;;;;;10.10;5.78;;;;;;;;;;4944210;29;20084;-72
2021/04/27 10:13:08;;;;;;;6.80;5.30;;;;;;;;;;4942600;29;20103;-72
2021/04/27 10:15:35;;;;;;;7.50;5.25;;;;;;;;;;4942691;29;20047;-76
2021/04/27 10:18:02;;;;;;;8.75;5.68;;;;;;;;;;4929680;29;20048;-76
2021/04/27 10:20:28;;;;;;;7.75;6.03;;;;;;;;;;4944423;29;20048;-77
2021/04/27 10:22:57;;;;;;;7.57;5.32;;;;;;;;;;4946313;29;20052;-75
2021/04/27 10:25:26;;;;;;;10.82;6.53;;;;;;;;;;4953253;29;20120;-74
2021/04/27 10:28:01;;;;;;;6.68;5.75;;;;;;;;;;4935466;29;20052;-76
2021/04/27 10:30:35;;;;;;;8.27;6.20;;;;;;;;;;4930561;29;20449;-79
2021/04/27 10:33:01;;;;;;;8.27;6.17;;;;;;;;;;4949019;29;20043;-74
2021/04/27 10:35:28;;;;;;;9.15;6.00;;;;;;;;;;4947415;29;20054;-73
2021/04/27 10:38:04;;;;;;;8.98;5.97;;;;;;;;;;4943168;29;20076;-78
2021/04/27 10:40:42;;;;;;;10.25;5.95;;;;;;;;;;4938552;29;20138;-78
2021/04/27 10:43:38;;;;;;;10.57;5.65;;;;;;;;;;4943991;29;20048;-76
2021/04/27 10:46:37;;;;;;;9.32;6.50;;;;;;;;;;4898182;29;20063;-76
2021/04/27 10:49:17;;;;;;;8.27;5.70;;;;;;;;;;4923168;29;20083;-76
2021/04/27 10:51:43;;;;;;;9.38;5.85;;;;;;;;;;4921129;29;20515;-75
2021/04/27 10:54:18;;;;;;;8.80;6.05;;;;;;;;;;4935412;29;20083;-75
2021/04/27 10:56:49;;;;;;;9.40;5.97;;;;;;;;;;4937276;29;20499;-78
2021/04/27 10:59:26;;;;;;;7.10;5.40;;;;;;;;;;4914220;29;20055;-74
2021/04/27 11:02:12;;;;;;;9.75;5.95;;;;;;;;;;4959495;29;20059;-76
2021/04/27 11:04:46;;;;;;;9.77;5.50;;;;;;;;;;4939305;29;20074;-78
2021/04/27 11:07:16;;;;;;;9.75;6.22;;;;;;;;;;4935304;29;20111;-77
2021/04/27 11:10:00;;;;;;;7.35;5.68;;;;;;;;;;4948147;29;20028;-77
2021/04/27 11:12:55;;;;;;;7.47;5.85;;;;;;;;;;4945104;29;20111;-74
2021/04/27 11:15:23;;;;;;;9.15;6.20;;;;;;;;;;4941633;29;20189;-77
2021/04/27 11:18:18;;;;;;;8.25;6.05;;;;;;;;;;4926546;29;20040;-78
2021/04/27 11:20:52;;;;;;;9.35;5.63;;;;;;;;;;4944764;29;20052;-78
2021/04/27 11:23:40;;;;;;;7.38;5.35;;;;;;;;;;4943032;29;20052;-77
2021/04/27 11:26:31;;;;;;;10.02;5.20;;;;;;;;;;4923458;29;20103;-77
2021/04/27 11:28:58;;;;;;;7.47;5.60;;;;;;;;;;4936935;29;20039;-77
2021/04/27 11:31:24;;;;;;;10.35;5.43;;;;;;;;;;4947866;29;20058;-77
2021/04/27 11:33:59;;;;;;;8.80;5.80;;;;;;;;;;4953691;29;20052;-78
2021/04/27 11:36:35;;;;;;;11.90;6.22;;;;;;;;;;4931081;29;20047;-75
2021/04/27 11:39:12;;;;;;;10.52;6.03;;;;;;;;;;4932845;29;20043;-76
2021/04/27 11:41:53;;;;;;;7.60;5.82;;;;;;;;;;4941370;29;20075;-76
2021/04/27 11:44:21;;;;;;;9.52;5.85;;;;;;;;;;4930807;29;20095;-75
2021/04/27 11:47:00;;;;;;;8.60;6.32;;;;;;;;;;4936293;29;20083;-76
2021/04/27 11:49:45;;;;;;;9.57;6.10;;;;;;;;;;4922080;29;20076;-74
2021/04/27 11:52:12;;;;;;;7.18;5.95;;;;;;;;;;4925897;29;20044;-76
2021/04/27 11:54:38;;;;;;;10.57;5.75;;;;;;;;;;4930304;29;20083;-76
2021/04/27 11:57:16;;;;;;;7.60;6.07;;;;;;;;;;4941462;29;20052;-76
2021/04/27 11:59:43;;;;;;;7.93;5.63;;;;;;;;;;4926932;29;20055;-75
2021/04/27 12:02:15;;;;;;;10.13;5.45;;;;;;;;;;4922054;29;20056;-75
2021/04/27 12:04:44;;;;;;;8.40;5.80;;;;;;;;;;4938445;29;20051;-77
2021/04/27 12:07:10;;;;;;;7.90;5.95;;;;;;;;;;4913978;29;20847;-79
2021/04/27 12:09:41;;;;;;;7.43;5.53;;;;;;;;;;4921960;29;20467;-78
2021/04/27 12:12:13;;;;;;;7.72;5.72;;;;;;;;;;4931207;29;20566;-77
2021/04/27 12:14:56;;;;;;;9.25;5.47;;;;;;;;;;4911441;29;20072;-80
2021/04/27 12:17:30;;;;;;;7.45;5.72;;;;;;;;;;4961293;29;20032;-76
2021/04/27 12:20:13;;;;;;;9.18;5.65;;;;;;;;;;4931224;29;20052;-77
2021/04/27 12:22:50;;;;;;;7.78;5.20;;;;;;;;;;4944134;29;20055;-75
2021/04/27 12:25:19;;;;;;;7.32;5.65;;;;;;;;;;4916937;29;20051;-74
2021/04/27 12:27:46;;;;;;;8.55;5.88;;;;;;;;;;4932227;29;20071;-74
2021/04/27 12:30:16;;;;;;;12.32;6.93;;;;;;;;;;4924321;29;20035;-78
2021/04/27 12:32:47;;;;;;;10.10;6.13;;;;;;;;;;4959023;29;20131;-75
2021/04/27 12:35:22;;;;;;;8.30;5.70;;;;;;;;;;4944125;29;20051;-77
2021/04/27 12:38:12;;;;;;;9.05;5.35;;;;;;;;;;4937504;29;20083;-75
2021/04/27 12:40:39;;;;;;;7.32;5.72;;;;;;;;;;4934571;29;20067;-72
2021/04/27 12:43:08;;;;;;;8.73;5.43;;;;;;;;;;4941483;28;20100;-74
2021/04/27 12:45:48;;;;;;;6.97;5.70;;;;;;;;;;4955242;29;20084;-75
2021/04/27 12:48:16;;;;;;;8.20;5.05;;;;;;;;;;4954498;29;20122;-73
2021/04/27 12:51:03;;;;;;;7.97;5.85;;;;;;;;;;4929910;29;20064;-73
2021/04/27 12:53:44;;;;;;;8.27;5.80;;;;;;;;;;4922796;29;20103;-73
2021/04/27 12:56:15;;;;;;;9.30;5.85;;;;;;;;;;4923278;29;20032;-72
2021/04/27 12:58:44;;;;;;;6.50;4.75;;;;;;;;;;4951193;28;20055;-73
2021/04/27 13:01:17;;;;;;;6.72;5.03;;;;;;;;;;4949149;28;20037;-77
2021/04/27 13:03:45;;;;;;;7.20;5.63;;;;;;;;;;4954674;28;20040;-81
2021/04/27 13:06:33;;;;;;;6.40;5.72;;;;;;;;;;4925635;29;20040;-76
2021/04/27 13:09:02;;;;;;;7.60;5.22;;;;;;;;;;4954929;28;20052;-77
2021/04/27 13:11:28;;;;;;;6.15;5.55;;;;;;;;;;4941833;29;20044;-75
2021/04/27 13:14:23;;;;;;;5.50;4.90;;;;;;;;;;4943635;29;20085;-78
2021/04/27 13:17:01;;;;;;;7.28;5.35;;;;;;;;;;4934679;29;20082;-76
2021/04/27 13:19:29;;;;;;;6.18;5.28;;;;;;;;;;4946135;29;20078;-77
2021/04/27 13:22:08;;;;;;;5.85;4.68;;;;;;;;;;4943794;29;20052;-76
2021/04/27 13:24:50;;;;;;;5.65;5.15;;;;;;;;;;4952184;29;20067;-73
2021/04/27 13:27:24;;;;;;;5.30;4.50;;;;;;;;;;4935660;29;20032;-72
2021/04/27 13:30:06;;;;;;;6.13;5.43;;;;;;;;;;4945012;29;20047;-72
2021/04/27 13:32:33;;;;;;;5.28;4.60;;;;;;;;;;4947529;29;20076;-72
2021/04/27 13:35:19;;;;;;;5.53;4.88;;;;;;;;;;4944828;29;20074;-72
2021/04/27 13:37:46;;;;;;;8.15;4.97;;;;;;;;;;4953828;29;20076;-72
2021/04/27 13:40:12;;;;;;;5.35;4.72;;;;;;;;;;4941972;29;20044;-70
2021/04/27 13:42:38;;;;;;;6.47;5.10;;;;;;;;;;4948762;29;20094;-70
2021/04/27 13:45:05;;;;;;;7.50;3.88;;;;;;;;;;4929563;29;20099;-72
2021/04/27 13:47:32;;;;;;;6.85;5.38;;;;;;;;;;4934030;29;20087;-73
2021/04/27 13:49:59;;;;;;;5.82;5.03;;;;;;;;;;4937355;29;20051;-74
2021/04/27 13:52:25;;;;;;;6.70;5.57;;;;;;;;;;4925698;29;20055;-73
2021/04/27 13:54:53;;;;;;;6.45;4.60;;;;;;;;;;4924232;29;20056;-74
2021/04/27 13:57:19;;;;;;;8.52;4.68;;;;;;;;;;4923490;29;20059;-73
2021/04/27 13:59:45;;;;;;;5.20;4.70;;;;;;;;;;4927819;29;20059;-73
2021/04/27 14:02:11;;;;;;;9.95;4.70;;;;;;;;;;4927000;29;20481;-73
2021/04/27 14:04:37;;;;;;;6.70;4.90;;;;;;;;;;4919518;29;20470;-74
2021/04/27 14:07:03;;;;;;;6.22;4.78;;;;;;;;;;4924466;29;20056;-73
2021/04/27 14:09:29;;;;;;;6.38;4.90;;;;;;;;;;4927156;29;20107;-73
2021/04/27 14:11:56;;;;;;;5.90;4.47;;;;;;;;;;4925272;29;20600;-73
2021/04/27 14:14:22;;;;;;;6.68;4.70;;;;;;;;;;4926378;29;20507;-73
2021/04/27 14:16:48;;;;;;;5.88;4.95;;;;;;;;;;4932247;29;20060;-75
2021/04/27 14:19:15;;;;;;;6.80;4.32;;;;;;;;;;4931630;29;20131;-74
2021/04/27 14:21:41;;;;;;;5.90;4.18;;;;;;;;;;4930690;29;20056;-74
2021/04/27 14:24:07;;;;;;;5.75;4.15;;;;;;;;;;4916416;29;20052;-74
2021/04/27 14:26:33;;;;;;;6.18;4.32;;;;;;;;;;4925506;29;20139;-74
2021/04/27 14:28:59;;;;;;;5.78;5.10;;;;;;;;;;4928500;29;20047;-74
2021/04/27 14:31:25;;;;;;;8.60;5.70;;;;;;;;;;4924631;29;20111;-74
2021/04/27 14:33:52;;;;;;;7.95;4.65;;;;;;;;;;4924155;29;20044;-73
2021/04/27 14:36:18;;;;;;;6.38;4.55;;;;;;;;;;4924550;29;20472;-74
2021/04/27 14:38:44;;;;;;;8.93;5.00;;;;;;;;;;4926853;29;20503;-74
2021/04/27 14:41:10;;;;;;;5.45;4.60;;;;;;;;;;4918211;29;20075;-73
2021/04/27 14:43:36;;;;;;;5.07;4.57;;;;;;;;;;4917750;29;20048;-74
2021/04/27 14:46:02;;;;;;;6.75;4.88;;;;;;;;;;4923467;29;20060;-74
2021/04/27 14:48:29;;;;;;;5.63;4.57;;;;;;;;;;4909264;29;20051;-73
2021/04/27 14:50:55;;;;;;;5.13;4.63;;;;;;;;;;4926662;29;20048;-73
2021/04/27 14:53:21;;;;;;;6.50;4.63;;;;;;;;;;4926561;29;20129;-76